sensor_id;sensor_type;location;lat;lon;timestamp;temperature;humidity
11700;DHT22;5906;51.660;6.674;2023-03-01T00:01:38;-2.10;99.90
11700;DHT22;5906;51.660;6.674;2023-03-01T00:04:05;-2.10;99.90
11700;DHT22;5906;51.660;6.674;2023-03-01T00:06:32;-2.20;99.90
11700;DHT22;5906;51.660;6.674;2023-03-01T00:08:59;-2.20;99.90
11700;DHT22;5906;51.660;6.674;2023-03-01T00:11:29;-2.30;99.90
11700;DHT22;5906;51.660;6.674;2023-03-01T00:13:59;-2.30;99.90
11700;DHT22;5906;51.660;6.674;2023-03-01T00:16:37;-2.30;99.90
11700;DHT22;5906;51.660;6.674;2023-03-01T00:19:17;-2.20;99.90
11700;DHT22;5906;51.660;6.674;2023-03-01T00:21:45;-2.20;99.90
11700;DHT22;5906;51.660;6.674;2023-03-01T00:24:16;-2.30;99.90
11700;DHT22;5906;51.660;6.674;2023-03-01T00:26:43;-2.30;99.90
11700;DHT22;5906;51.660;6.674;2023-03-01T00:29:10;-2.40;99.90
11700;DHT22;5906;51.660;6.674;2023-03-01T00:31:37;-2.30;99.90
11700;DHT22;5906;51.660;6.674;2023-03-01T00:34:05;-2.30;99.90
11700;DHT22;5906;51.660;6.674;2023-03-01T00:36:35;-2.30;99.90
11700;DHT22;5906;51.660;6.674;2023-03-01T00:39:05;-2.30;99.90
11700;DHT22;5906;51.660;6.674;2023-03-01T00:41:34;-2.30;99.90
11700;DHT22;5906;51.660;6.674;2023-03-01T00:44:01;-2.30;99.90
11700;DHT22;5906;51.660;6.674;2023-03-01T00:46:28;-2.40;99.90
11700;DHT22;5906;51.660;6.674;2023-03-01T00:48:57;-2.40;99.90
11700;DHT22;5906;51.660;6.674;2023-03-01T00:51:26;-2.50;99.90
11700;DHT22;5906;51.660;6.674;2023-03-01T00:53:56;-2.40;99.90
11700;DHT22;5906;51.660;6.674;2023-03-01T00:56:24;-2.50;99.90
11700;DHT22;5906;51.660;6.674;2023-03-01T00:58:52;-2.50;99.90
11700;DHT22;5906;51.660;6.674;2023-03-01T01:01:22;-2.60;99.90
11700;DHT22;5906;51.660;6.674;2023-03-01T01:03:58;-2.60;99.90
11700;DHT22;5906;51.660;6.674;2023-03-01T01:06:34;-2.60;99.90
11700;DHT22;5906;51.660;6.674;2023-03-01T01:09:04;-2.60;99.90
11700;DHT22;5906;51.660;6.674;2023-03-01T01:11:33;-2.60;99.90
11700;DHT22;5906;51.660;6.674;2023-03-01T01:14:02;-2.60;99.90
11700;DHT22;5906;51.660;6.674;2023-03-01T01:16:29;-2.60;99.90
11700;DHT22;5906;51.660;6.674;2023-03-01T01:18:58;-2.60;99.90
11700;DHT22;5906;51.660;6.674;2023-03-01T01:21:36;-2.60;99.90
11700;DHT22;5906;51.660;6.674;2023-03-01T01:24:04;-2.70;99.90
11700;DHT22;5906;51.660;6.674;2023-03-01T01:26:33;-2.60;99.90
11700;DHT22;5906;51.660;6.674;2023-03-01T01:29:02;-2.60;99.90
11700;DHT22;5906;51.660;6.674;2023-03-01T01:31:29;-2.70;99.90
11700;DHT22;5906;51.660;6.674;2023-03-01T01:33:57;-2.70;99.90
11700;DHT22;5906;51.660;6.674;2023-03-01T01:36:25;-2.70;99.90
11700;DHT22;5906;51.660;6.674;2023-03-01T01:38:52;-2.70;99.90
11700;DHT22;5906;51.660;6.674;2023-03-01T01:41:20;-2.80;99.90
11700;DHT22;5906;51.660;6.674;2023-03-01T01:44:10;-2.80;99.90
11700;DHT22;5906;51.660;6.674;2023-03-01T01:46:40;-2.90;99.90
11700;DHT22;5906;51.660;6.674;2023-03-01T01:49:18;-2.80;99.90
11700;DHT22;5906;51.660;6.674;2023-03-01T01:51:48;-2.90;99.90
11700;DHT22;5906;51.660;6.674;2023-03-01T01:54:19;-2.90;99.90
11700;DHT22;5906;51.660;6.674;2023-03-01T01:56:55;-2.90;99.90
11700;DHT22;5906;51.660;6.674;2023-03-01T01:59:25;-2.90;99.90
11700;DHT22;5906;51.660;6.674;2023-03-01T02:01:53;-2.90;99.90
11700;DHT22;5906;51.660;6.674;2023-03-01T02:04:21;-2.90;99.90
11700;DHT22;5906;51.660;6.674;2023-03-01T02:06:54;-3.00;99.90
11700;DHT22;5906;51.660;6.674;2023-03-01T02:09:23;-3.10;99.90
11700;DHT22;5906;51.660;6.674;2023-03-01T02:11:51;-3.10;99.90
11700;DHT22;5906;51.660;6.674;2023-03-01T02:14:18;-3.10;99.90
11700;DHT22;5906;51.660;6.674;2023-03-01T02:16:46;-3.10;99.90
11700;DHT22;5906;51.660;6.674;2023-03-01T02:19:31;-3.10;99.90
11700;DHT22;5906;51.660;6.674;2023-03-01T02:22:25;-3.10;99.90
11700;DHT22;5906;51.660;6.674;2023-03-01T02:27:33;-3.20;99.90
11700;DHT22;5906;51.660;6.674;2023-03-01T02:30:04;-3.20;99.90
11700;DHT22;5906;51.660;6.674;2023-03-01T02:32:31;-3.20;99.90
11700;DHT22;5906;51.660;6.674;2023-03-01T02:34:59;-3.20;99.90
11700;DHT22;5906;51.660;6.674;2023-03-01T02:37:26;-3.20;99.90
11700;DHT22;5906;51.660;6.674;2023-03-01T02:39:59;-3.30;99.90
11700;DHT22;5906;51.660;6.674;2023-03-01T02:42:30;-3.30;99.90
11700;DHT22;5906;51.660;6.674;2023-03-01T02:44:59;-3.30;99.90
11700;DHT22;5906;51.660;6.674;2023-03-01T02:47:28;-3.30;99.90
11700;DHT22;5906;51.660;6.674;2023-03-01T02:49:55;-3.30;99.90
11700;DHT22;5906;51.660;6.674;2023-03-01T02:52:45;-3.30;99.90
11700;DHT22;5906;51.660;6.674;2023-03-01T02:55:16;-3.30;99.90
11700;DHT22;5906;51.660;6.674;2023-03-01T02:57:45;-3.40;99.90
11700;DHT22;5906;51.660;6.674;2023-03-01T03:00:21;-3.40;99.90
11700;DHT22;5906;51.660;6.674;2023-03-01T03:02:51;-3.40;99.90
11700;DHT22;5906;51.660;6.674;2023-03-01T03:05:37;-3.50;99.90
11700;DHT22;5906;51.660;6.674;2023-03-01T03:08:04;-3.50;99.90
11700;DHT22;5906;51.660;6.674;2023-03-01T03:10:35;-3.50;99.90
11700;DHT22;5906;51.660;6.674;2023-03-01T03:13:11;-3.50;99.90
11700;DHT22;5906;51.660;6.674;2023-03-01T03:15:41;-3.50;99.90
11700;DHT22;5906;51.660;6.674;2023-03-01T03:18:14;-3.50;99.90
11700;DHT22;5906;51.660;6.674;2023-03-01T03:20:43;-3.50;99.90
11700;DHT22;5906;51.660;6.674;2023-03-01T03:23:10;-3.60;99.90
11700;DHT22;5906;51.660;6.674;2023-03-01T03:25:37;-3.50;99.90
11700;DHT22;5906;51.660;6.674;2023-03-01T03:28:06;-3.60;99.90
11700;DHT22;5906;51.660;6.674;2023-03-01T03:30:40;-3.60;99.90
11700;DHT22;5906;51.660;6.674;2023-03-01T03:33:08;-3.60;99.90
11700;DHT22;5906;51.660;6.674;2023-03-01T03:35:44;-3.60;99.90
11700;DHT22;5906;51.660;6.674;2023-03-01T03:38:14;-3.60;99.90
11700;DHT22;5906;51.660;6.674;2023-03-01T03:40:48;-3.60;99.90
11700;DHT22;5906;51.660;6.674;2023-03-01T03:43:17;-3.60;99.90
11700;DHT22;5906;51.660;6.674;2023-03-01T03:45:48;-3.60;99.90
11700;DHT22;5906;51.660;6.674;2023-03-01T03:48:18;-3.70;99.90
11700;DHT22;5906;51.660;6.674;2023-03-01T03:51:06;-3.60;99.90
11700;DHT22;5906;51.660;6.674;2023-03-01T03:53:34;-3.70;99.90
11700;DHT22;5906;51.660;6.674;2023-03-01T03:56:01;-3.70;99.90
11700;DHT22;5906;51.660;6.674;2023-03-01T03:58:28;-3.70;99.90
11700;DHT22;5906;51.660;6.674;2023-03-01T04:00:56;-3.70;99.90
11700;DHT22;5906;51.660;6.674;2023-03-01T04:03:25;-3.70;99.90
11700;DHT22;5906;51.660;6.674;2023-03-01T04:05:52;-3.70;99.90
11700;DHT22;5906;51.660;6.674;2023-03-01T04:08:21;-3.70;99.90
11700;DHT22;5906;51.660;6.674;2023-03-01T04:10:51;-3.80;99.90
11700;DHT22;5906;51.660;6.674;2023-03-01T04:13:20;-3.70;99.90
11700;DHT22;5906;51.660;6.674;2023-03-01T04:15:53;-3.70;99.90
11700;DHT22;5906;51.660;6.674;2023-03-01T04:18:22;-3.70;99.90
11700;DHT22;5906;51.660;6.674;2023-03-01T04:20:50;-3.80;99.90
11700;DHT22;5906;51.660;6.674;2023-03-01T04:23:20;-3.80;99.90
11700;DHT22;5906;51.660;6.674;2023-03-01T04:25:51;-3.80;99.90
11700;DHT22;5906;51.660;6.674;2023-03-01T04:28:32;-3.80;99.90
11700;DHT22;5906;51.660;6.674;2023-03-01T04:31:12;-3.80;99.90
11700;DHT22;5906;51.660;6.674;2023-03-01T04:33:42;-3.80;99.90
11700;DHT22;5906;51.660;6.674;2023-03-01T04:36:10;-3.80;99.90
11700;DHT22;5906;51.660;6.674;2023-03-01T04:38:39;-3.80;99.90
11700;DHT22;5906;51.660;6.674;2023-03-01T04:41:07;-3.80;99.90
11700;DHT22;5906;51.660;6.674;2023-03-01T04:43:35;-3.80;99.90
11700;DHT22;5906;51.660;6.674;2023-03-01T04:46:05;-3.80;99.90
11700;DHT22;5906;51.660;6.674;2023-03-01T04:48:32;-3.90;99.90
11700;DHT22;5906;51.660;6.674;2023-03-01T04:51:00;-4.00;99.90
11700;DHT22;5906;51.660;6.674;2023-03-01T04:53:27;-4.00;99.90
11700;DHT22;5906;51.660;6.674;2023-03-01T04:55:55;-4.00;99.90
11700;DHT22;5906;51.660;6.674;2023-03-01T04:58:25;-3.90;99.90
11700;DHT22;5906;51.660;6.674;2023-03-01T05:00:54;-4.00;99.90
11700;DHT22;5906;51.660;6.674;2023-03-01T05:03:22;-4.00;99.90
11700;DHT22;5906;51.660;6.674;2023-03-01T05:05:51;-4.00;99.90
11700;DHT22;5906;51.660;6.674;2023-03-01T05:08:19;-4.00;99.90
11700;DHT22;5906;51.660;6.674;2023-03-01T05:10:52;-4.00;99.90
11700;DHT22;5906;51.660;6.674;2023-03-01T05:13:20;-4.00;99.90
11700;DHT22;5906;51.660;6.674;2023-03-01T05:15:56;-3.90;99.90
11700;DHT22;5906;51.660;6.674;2023-03-01T05:18:24;-4.00;99.90
11700;DHT22;5906;51.660;6.674;2023-03-01T05:20:55;-4.00;99.90
11700;DHT22;5906;51.660;6.674;2023-03-01T05:23:25;-4.00;99.90
11700;DHT22;5906;51.660;6.674;2023-03-01T05:25:53;-4.00;99.90
11700;DHT22;5906;51.660;6.674;2023-03-01T05:28:22;-4.00;99.90
11700;DHT22;5906;51.660;6.674;2023-03-01T05:35:32;-4.00;99.90
11700;DHT22;5906;51.660;6.674;2023-03-01T05:38:20;-3.90;99.90
11700;DHT22;5906;51.660;6.674;2023-03-01T05:40:48;-3.80;99.90
11700;DHT22;5906;51.660;6.674;2023-03-01T05:43:35;-3.70;99.90
11700;DHT22;5906;51.660;6.674;2023-03-01T05:46:03;-3.50;99.90
11700;DHT22;5906;51.660;6.674;2023-03-01T05:48:30;-3.40;99.90
11700;DHT22;5906;51.660;6.674;2023-03-01T05:50:59;-3.50;99.90
11700;DHT22;5906;51.660;6.674;2023-03-01T05:53:27;-3.50;99.90
11700;DHT22;5906;51.660;6.674;2023-03-01T05:55:54;-3.50;99.90
11700;DHT22;5906;51.660;6.674;2023-03-01T05:58:22;-3.50;99.90
11700;DHT22;5906;51.660;6.674;2023-03-01T06:00:49;-3.60;99.90
11700;DHT22;5906;51.660;6.674;2023-03-01T06:03:17;-3.60;99.90
11700;DHT22;5906;51.660;6.674;2023-03-01T06:05:45;-3.70;99.90
11700;DHT22;5906;51.660;6.674;2023-03-01T06:08:13;-3.70;99.90
11700;DHT22;5906;51.660;6.674;2023-03-01T06:10:40;-3.70;99.90
11700;DHT22;5906;51.660;6.674;2023-03-01T06:13:08;-3.70;99.90
11700;DHT22;5906;51.660;6.674;2023-03-01T06:15:35;-3.80;99.90
11700;DHT22;5906;51.660;6.674;2023-03-01T06:18:04;-3.80;99.90
11700;DHT22;5906;51.660;6.674;2023-03-01T06:20:31;-3.80;99.90
11700;DHT22;5906;51.660;6.674;2023-03-01T06:22:58;-3.90;99.90
11700;DHT22;5906;51.660;6.674;2023-03-01T06:25:27;-3.90;99.90
11700;DHT22;5906;51.660;6.674;2023-03-01T06:27:54;-4.00;99.90
11700;DHT22;5906;51.660;6.674;2023-03-01T06:30:23;-4.00;99.90
11700;DHT22;5906;51.660;6.674;2023-03-01T06:32:50;-4.00;99.90
11700;DHT22;5906;51.660;6.674;2023-03-01T06:35:18;-4.00;99.90
11700;DHT22;5906;51.660;6.674;2023-03-01T06:37:47;-4.00;99.90
11700;DHT22;5906;51.660;6.674;2023-03-01T06:40:15;-4.00;99.90
11700;DHT22;5906;51.660;6.674;2023-03-01T06:42:47;-4.00;99.90
11700;DHT22;5906;51.660;6.674;2023-03-01T06:45:19;-4.00;99.90
11700;DHT22;5906;51.660;6.674;2023-03-01T06:47:47;-4.00;99.90
11700;DHT22;5906;51.660;6.674;2023-03-01T06:50:15;-4.00;99.90
11700;DHT22;5906;51.660;6.674;2023-03-01T06:52:43;-4.00;99.90
11700;DHT22;5906;51.660;6.674;2023-03-01T06:55:12;-4.00;99.90
11700;DHT22;5906;51.660;6.674;2023-03-01T06:57:40;-3.90;99.90
11700;DHT22;5906;51.660;6.674;2023-03-01T07:00:09;-3.90;99.90
11700;DHT22;5906;51.660;6.674;2023-03-01T07:02:36;-3.90;99.90
11700;DHT22;5906;51.660;6.674;2023-03-01T07:05:03;-3.80;99.90
11700;DHT22;5906;51.660;6.674;2023-03-01T07:07:31;-3.80;99.90
11700;DHT22;5906;51.660;6.674;2023-03-01T07:09:58;-3.70;99.90
11700;DHT22;5906;51.660;6.674;2023-03-01T07:12:25;-3.70;99.90
11700;DHT22;5906;51.660;6.674;2023-03-01T07:14:53;-3.70;99.90
11700;DHT22;5906;51.660;6.674;2023-03-01T07:17:20;-3.60;99.90
11700;DHT22;5906;51.660;6.674;2023-03-01T07:19:47;-3.60;99.90
11700;DHT22;5906;51.660;6.674;2023-03-01T07:22:14;-3.60;99.90
11700;DHT22;5906;51.660;6.674;2023-03-01T07:24:42;-3.50;99.90
11700;DHT22;5906;51.660;6.674;2023-03-01T07:27:09;-3.50;99.90
11700;DHT22;5906;51.660;6.674;2023-03-01T07:29:36;-3.40;99.90
11700;DHT22;5906;51.660;6.674;2023-03-01T07:32:21;-3.40;99.90
11700;DHT22;5906;51.660;6.674;2023-03-01T07:34:50;-3.30;99.90
11700;DHT22;5906;51.660;6.674;2023-03-01T07:37:17;-3.20;99.90
11700;DHT22;5906;51.660;6.674;2023-03-01T07:39:44;-3.10;99.90
11700;DHT22;5906;51.660;6.674;2023-03-01T07:42:11;-3.00;99.90
11700;DHT22;5906;51.660;6.674;2023-03-01T07:44:38;-2.80;99.90
11700;DHT22;5906;51.660;6.674;2023-03-01T07:47:05;-2.70;99.90
11700;DHT22;5906;51.660;6.674;2023-03-01T07:49:33;-2.50;99.90
11700;DHT22;5906;51.660;6.674;2023-03-01T07:52:02;-2.40;99.90
11700;DHT22;5906;51.660;6.674;2023-03-01T07:54:29;-2.20;99.90
11700;DHT22;5906;51.660;6.674;2023-03-01T07:56:57;-2.00;99.90
11700;DHT22;5906;51.660;6.674;2023-03-01T07:59:24;-1.80;99.90
11700;DHT22;5906;51.660;6.674;2023-03-01T08:01:56;-1.70;99.90
11700;DHT22;5906;51.660;6.674;2023-03-01T08:04:24;-1.50;99.90
11700;DHT22;5906;51.660;6.674;2023-03-01T08:06:54;-1.30;99.90
11700;DHT22;5906;51.660;6.674;2023-03-01T08:09:22;-1.10;99.90
11700;DHT22;5906;51.660;6.674;2023-03-01T08:11:49;-0.90;99.90
11700;DHT22;5906;51.660;6.674;2023-03-01T08:14:16;-0.70;99.90
11700;DHT22;5906;51.660;6.674;2023-03-01T08:16:43;-0.50;99.90
11700;DHT22;5906;51.660;6.674;2023-03-01T08:19:12;-0.40;99.90
11700;DHT22;5906;51.660;6.674;2023-03-01T08:21:39;-0.20;99.90
11700;DHT22;5906;51.660;6.674;2023-03-01T08:24:07;0.00;99.90
11700;DHT22;5906;51.660;6.674;2023-03-01T08:26:34;0.10;99.90
11700;DHT22;5906;51.660;6.674;2023-03-01T08:29:02;0.30;99.90
11700;DHT22;5906;51.660;6.674;2023-03-01T08:31:36;0.50;99.90
11700;DHT22;5906;51.660;6.674;2023-03-01T08:34:10;0.50;99.90
11700;DHT22;5906;51.660;6.674;2023-03-01T08:36:41;0.70;99.90
11700;DHT22;5906;51.660;6.674;2023-03-01T08:39:12;0.80;99.90
11700;DHT22;5906;51.660;6.674;2023-03-01T08:41:40;0.80;99.90
11700;DHT22;5906;51.660;6.674;2023-03-01T08:44:10;1.00;99.90
11700;DHT22;5906;51.660;6.674;2023-03-01T08:46:39;1.20;99.90
11700;DHT22;5906;51.660;6.674;2023-03-01T08:49:10;1.30;99.90
11700;DHT22;5906;51.660;6.674;2023-03-01T08:51:58;1.50;99.90
11700;DHT22;5906;51.660;6.674;2023-03-01T08:54:26;1.60;99.90
11700;DHT22;5906;51.660;6.674;2023-03-01T08:56:53;1.70;99.90
11700;DHT22;5906;51.660;6.674;2023-03-01T08:59:20;1.70;99.90
11700;DHT22;5906;51.660;6.674;2023-03-01T09:01:47;1.90;99.90
11700;DHT22;5906;51.660;6.674;2023-03-01T09:04:33;2.00;99.90
11700;DHT22;5906;51.660;6.674;2023-03-01T09:07:00;2.10;99.90
11700;DHT22;5906;51.660;6.674;2023-03-01T09:09:31;2.20;99.90
11700;DHT22;5906;51.660;6.674;2023-03-01T09:11:58;2.30;99.90
11700;DHT22;5906;51.660;6.674;2023-03-01T09:14:25;2.40;99.90
11700;DHT22;5906;51.660;6.674;2023-03-01T09:16:52;2.50;99.90
11700;DHT22;5906;51.660;6.674;2023-03-01T09:19:19;2.60;99.90
11700;DHT22;5906;51.660;6.674;2023-03-01T09:21:47;2.80;99.90
11700;DHT22;5906;51.660;6.674;2023-03-01T09:24:21;2.90;99.90
11700;DHT22;5906;51.660;6.674;2023-03-01T09:26:49;3.10;99.90
11700;DHT22;5906;51.660;6.674;2023-03-01T09:29:17;3.20;99.90
11700;DHT22;5906;51.660;6.674;2023-03-01T09:31:44;3.30;99.90
11700;DHT22;5906;51.660;6.674;2023-03-01T09:34:11;3.40;99.90
11700;DHT22;5906;51.660;6.674;2023-03-01T09:36:38;3.60;99.90
11700;DHT22;5906;51.660;6.674;2023-03-01T09:39:05;3.80;99.90
11700;DHT22;5906;51.660;6.674;2023-03-01T09:41:54;3.90;99.90
11700;DHT22;5906;51.660;6.674;2023-03-01T09:44:47;4.10;99.90
11700;DHT22;5906;51.660;6.674;2023-03-01T09:47:37;4.20;99.90
11700;DHT22;5906;51.660;6.674;2023-03-01T09:50:06;4.40;99.90
11700;DHT22;5906;51.660;6.674;2023-03-01T09:52:43;4.70;99.90
11700;DHT22;5906;51.660;6.674;2023-03-01T09:55:15;4.70;99.90
11700;DHT22;5906;51.660;6.674;2023-03-01T10:08:30;4.90;97.40
11700;DHT22;5906;51.660;6.674;2023-03-01T10:11:00;4.80;96.70
11700;DHT22;5906;51.660;6.674;2023-03-01T10:13:48;4.90;98.60
11700;DHT22;5906;51.660;6.674;2023-03-01T10:19:46;5.20;97.00
11700;DHT22;5906;51.660;6.674;2023-03-01T10:24:43;5.40;94.40
11700;DHT22;5906;51.660;6.674;2023-03-01T10:27:38;5.40;93.80
11700;DHT22;5906;51.660;6.674;2023-03-01T10:30:34;5.60;93.30
11700;DHT22;5906;51.660;6.674;2023-03-01T10:32:58;5.50;94.20
11700;DHT22;5906;51.660;6.674;2023-03-01T10:35:29;5.60;94.60
11700;DHT22;5906;51.660;6.674;2023-03-01T10:38:08;5.70;91.50
11700;DHT22;5906;51.660;6.674;2023-03-01T10:40:49;5.70;91.30
11700;DHT22;5906;51.660;6.674;2023-03-01T10:43:17;5.80;87.90
11700;DHT22;5906;51.660;6.674;2023-03-01T10:45:44;5.80;87.00
11700;DHT22;5906;51.660;6.674;2023-03-01T10:48:18;5.70;88.50
11700;DHT22;5906;51.660;6.674;2023-03-01T10:50:48;5.90;89.10
11700;DHT22;5906;51.660;6.674;2023-03-01T10:56:11;6.20;81.90
11700;DHT22;5906;51.660;6.674;2023-03-01T10:59:00;6.20;82.30
11700;DHT22;5906;51.660;6.674;2023-03-01T11:01:30;6.30;81.00
11700;DHT22;5906;51.660;6.674;2023-03-01T11:06:34;6.40;77.40
11700;DHT22;5906;51.660;6.674;2023-03-01T11:09:23;6.50;75.90
11700;DHT22;5906;51.660;6.674;2023-03-01T11:11:53;6.50;70.40
11700;DHT22;5906;51.660;6.674;2023-03-01T11:14:37;6.50;73.70
11700;DHT22;5906;51.660;6.674;2023-03-01T11:20:01;6.70;68.50
11700;DHT22;5906;51.660;6.674;2023-03-01T11:22:29;6.60;71.50
11700;DHT22;5906;51.660;6.674;2023-03-01T11:24:57;6.80;69.50
11700;DHT22;5906;51.660;6.674;2023-03-01T11:27:40;6.70;71.00
11700;DHT22;5906;51.660;6.674;2023-03-01T11:30:28;6.90;71.70
11700;DHT22;5906;51.660;6.674;2023-03-01T11:33:12;6.90;64.80
11700;DHT22;5906;51.660;6.674;2023-03-01T11:36:03;7.00;67.20
11700;DHT22;5906;51.660;6.674;2023-03-01T11:38:34;7.10;61.50
11700;DHT22;5906;51.660;6.674;2023-03-01T11:41:15;7.30;58.70
11700;DHT22;5906;51.660;6.674;2023-03-01T11:43:56;7.10;59.50
11700;DHT22;5906;51.660;6.674;2023-03-01T11:55:25;7.40;58.00
11700;DHT22;5906;51.660;6.674;2023-03-01T12:23:02;8.00;53.10
11700;DHT22;5906;51.660;6.674;2023-03-01T12:33:50;8.00;47.30
11700;DHT22;5906;51.660;6.674;2023-03-01T12:49:40;8.30;51.80
11700;DHT22;5906;51.660;6.674;2023-03-01T12:54:40;8.30;40.50
11700;DHT22;5906;51.660;6.674;2023-03-01T12:57:16;8.30;38.80
11700;DHT22;5906;51.660;6.674;2023-03-01T13:08:20;8.20;42.60
11700;DHT22;5906;51.660;6.674;2023-03-01T13:11:04;8.20;46.30
11700;DHT22;5906;51.660;6.674;2023-03-01T13:13:32;8.30;44.40
11700;DHT22;5906;51.660;6.674;2023-03-01T13:16:38;8.20;46.70
11700;DHT22;5906;51.660;6.674;2023-03-01T13:19:17;8.20;46.10
11700;DHT22;5906;51.660;6.674;2023-03-01T13:21:46;8.40;49.20
11700;DHT22;5906;51.660;6.674;2023-03-01T13:24:37;8.40;44.00
11700;DHT22;5906;51.660;6.674;2023-03-01T13:29:55;8.40;46.20
11700;DHT22;5906;51.660;6.674;2023-03-01T13:32:28;8.40;46.40
11700;DHT22;5906;51.660;6.674;2023-03-01T13:37:45;8.40;44.30
11700;DHT22;5906;51.660;6.674;2023-03-01T13:42:52;8.50;42.50
11700;DHT22;5906;51.660;6.674;2023-03-01T13:45:42;8.40;42.10
11700;DHT22;5906;51.660;6.674;2023-03-01T13:48:11;8.40;44.60
11700;DHT22;5906;51.660;6.674;2023-03-01T13:50:53;8.40;41.80
11700;DHT22;5906;51.660;6.674;2023-03-01T13:53:24;8.10;40.70
11700;DHT22;5906;51.660;6.674;2023-03-01T13:56:00;8.10;43.40
11700;DHT22;5906;51.660;6.674;2023-03-01T13:58:30;8.40;40.50
11700;DHT22;5906;51.660;6.674;2023-03-01T14:01:05;8.40;41.20
11700;DHT22;5906;51.660;6.674;2023-03-01T14:03:39;8.50;41.70
11700;DHT22;5906;51.660;6.674;2023-03-01T14:06:12;8.40;38.10
11700;DHT22;5906;51.660;6.674;2023-03-01T14:08:45;8.30;39.30
11700;DHT22;5906;51.660;6.674;2023-03-01T14:19:33;8.20;39.40
11700;DHT22;5906;51.660;6.674;2023-03-01T14:22:20;8.20;40.50
11700;DHT22;5906;51.660;6.674;2023-03-01T14:24:51;8.10;36.50
11700;DHT22;5906;51.660;6.674;2023-03-01T14:27:19;8.30;37.20
11700;DHT22;5906;51.660;6.674;2023-03-01T14:29:58;8.30;38.20
11700;DHT22;5906;51.660;6.674;2023-03-01T14:32:28;8.20;37.10
11700;DHT22;5906;51.660;6.674;2023-03-01T14:34:56;8.20;39.20
11700;DHT22;5906;51.660;6.674;2023-03-01T14:37:32;8.30;38.50
11700;DHT22;5906;51.660;6.674;2023-03-01T14:40:03;8.40;39.10
11700;DHT22;5906;51.660;6.674;2023-03-01T14:42:37;8.30;35.10
11700;DHT22;5906;51.660;6.674;2023-03-01T14:45:04;8.10;36.20
11700;DHT22;5906;51.660;6.674;2023-03-01T14:47:35;8.30;38.60
11700;DHT22;5906;51.660;6.674;2023-03-01T14:50:53;8.30;38.30
11700;DHT22;5906;51.660;6.674;2023-03-01T14:53:24;8.30;37.00
11700;DHT22;5906;51.660;6.674;2023-03-01T14:55:54;8.20;37.00
11700;DHT22;5906;51.660;6.674;2023-03-01T14:58:24;8.10;36.10
11700;DHT22;5906;51.660;6.674;2023-03-01T15:01:00;8.10;38.70
11700;DHT22;5906;51.660;6.674;2023-03-01T15:03:38;8.00;38.20
11700;DHT22;5906;51.660;6.674;2023-03-01T15:06:08;8.00;38.10
11700;DHT22;5906;51.660;6.674;2023-03-01T15:08:37;7.80;40.60
11700;DHT22;5906;51.660;6.674;2023-03-01T15:11:28;7.80;40.70
11700;DHT22;5906;51.660;6.674;2023-03-01T15:13:55;7.70;41.10
11700;DHT22;5906;51.660;6.674;2023-03-01T15:16:25;7.70;39.80
11700;DHT22;5906;51.660;6.674;2023-03-01T15:18:55;7.70;39.50
11700;DHT22;5906;51.660;6.674;2023-03-01T15:21:29;7.60;39.60
11700;DHT22;5906;51.660;6.674;2023-03-01T15:26:44;7.70;38.80
11700;DHT22;5906;51.660;6.674;2023-03-01T15:29:17;7.60;38.40
11700;DHT22;5906;51.660;6.674;2023-03-01T15:32:04;7.60;39.20
11700;DHT22;5906;51.660;6.674;2023-03-01T15:34:38;7.70;37.90
11700;DHT22;5906;51.660;6.674;2023-03-01T15:37:32;7.60;38.90
11700;DHT22;5906;51.660;6.674;2023-03-01T15:39:56;7.60;38.70
11700;DHT22;5906;51.660;6.674;2023-03-01T15:45:23;7.70;37.00
11700;DHT22;5906;51.660;6.674;2023-03-01T15:47:55;7.70;38.20
11700;DHT22;5906;51.660;6.674;2023-03-01T15:50:27;7.60;38.10
11700;DHT22;5906;51.660;6.674;2023-03-01T15:52:56;7.60;39.10
11700;DHT22;5906;51.660;6.674;2023-03-01T15:55:27;7.60;38.30
11700;DHT22;5906;51.660;6.674;2023-03-01T15:58:00;7.40;40.80
11700;DHT22;5906;51.660;6.674;2023-03-01T16:00:28;7.40;38.60
11700;DHT22;5906;51.660;6.674;2023-03-01T16:02:56;7.40;39.90
11700;DHT22;5906;51.660;6.674;2023-03-01T16:05:26;7.40;38.60
11700;DHT22;5906;51.660;6.674;2023-03-01T16:07:54;7.30;38.30
11700;DHT22;5906;51.660;6.674;2023-03-01T16:10:22;7.30;38.10
11700;DHT22;5906;51.660;6.674;2023-03-01T16:12:50;7.10;38.60
11700;DHT22;5906;51.660;6.674;2023-03-01T16:15:31;7.10;38.90
11700;DHT22;5906;51.660;6.674;2023-03-01T16:17:59;7.10;38.30
11700;DHT22;5906;51.660;6.674;2023-03-01T16:20:28;7.00;38.20
11700;DHT22;5906;51.660;6.674;2023-03-01T16:23:00;7.00;40.00
11700;DHT22;5906;51.660;6.674;2023-03-01T16:25:28;7.00;39.20
11700;DHT22;5906;51.660;6.674;2023-03-01T16:27:56;7.00;40.50
11700;DHT22;5906;51.660;6.674;2023-03-01T16:30:25;6.90;39.80
11700;DHT22;5906;51.660;6.674;2023-03-01T16:32:52;6.80;39.70
11700;DHT22;5906;51.660;6.674;2023-03-01T16:35:20;6.70;41.40
11700;DHT22;5906;51.660;6.674;2023-03-01T16:37:48;6.70;41.50
11700;DHT22;5906;51.660;6.674;2023-03-01T16:40:27;6.60;41.80
11700;DHT22;5906;51.660;6.674;2023-03-01T16:42:56;6.50;42.90
11700;DHT22;5906;51.660;6.674;2023-03-01T16:45:28;6.50;44.10
11700;DHT22;5906;51.660;6.674;2023-03-01T16:47:55;6.50;43.90
11700;DHT22;5906;51.660;6.674;2023-03-01T16:50:22;6.40;44.60
11700;DHT22;5906;51.660;6.674;2023-03-01T16:52:50;6.30;45.20
11700;DHT22;5906;51.660;6.674;2023-03-01T16:55:17;6.20;45.70
11700;DHT22;5906;51.660;6.674;2023-03-01T16:57:44;6.30;45.20
11700;DHT22;5906;51.660;6.674;2023-03-01T17:00:12;6.20;44.70
11700;DHT22;5906;51.660;6.674;2023-03-01T17:02:40;6.20;45.10
11700;DHT22;5906;51.660;6.674;2023-03-01T17:05:09;6.20;46.20
11700;DHT22;5906;51.660;6.674;2023-03-01T17:07:37;6.00;47.60
11700;DHT22;5906;51.660;6.674;2023-03-01T17:10:06;6.00;47.60
11700;DHT22;5906;51.660;6.674;2023-03-01T17:12:35;5.90;48.10
11700;DHT22;5906;51.660;6.674;2023-03-01T17:15:03;5.80;48.60
11700;DHT22;5906;51.660;6.674;2023-03-01T17:17:30;5.60;50.30
11700;DHT22;5906;51.660;6.674;2023-03-01T17:19:57;5.50;50.60
11700;DHT22;5906;51.660;6.674;2023-03-01T17:22:25;5.40;50.90
11700;DHT22;5906;51.660;6.674;2023-03-01T17:24:52;5.40;51.70
11700;DHT22;5906;51.660;6.674;2023-03-01T17:27:18;5.30;53.20
11700;DHT22;5906;51.660;6.674;2023-03-01T17:29:45;5.30;53.20
11700;DHT22;5906;51.660;6.674;2023-03-01T17:32:12;5.30;53.40
11700;DHT22;5906;51.660;6.674;2023-03-01T17:34:40;5.10;55.00
11700;DHT22;5906;51.660;6.674;2023-03-01T17:37:07;5.00;56.00
11700;DHT22;5906;51.660;6.674;2023-03-01T17:39:34;5.00;55.70
11700;DHT22;5906;51.660;6.674;2023-03-01T17:42:05;4.90;56.90
11700;DHT22;5906;51.660;6.674;2023-03-01T17:44:33;4.90;57.30
11700;DHT22;5906;51.660;6.674;2023-03-01T17:47:04;4.90;57.90
11700;DHT22;5906;51.660;6.674;2023-03-01T17:49:32;4.90;58.60
11700;DHT22;5906;51.660;6.674;2023-03-01T17:51:59;4.80;60.00
11700;DHT22;5906;51.660;6.674;2023-03-01T17:54:26;4.60;61.90
11700;DHT22;5906;51.660;6.674;2023-03-01T17:56:53;4.50;63.40
11700;DHT22;5906;51.660;6.674;2023-03-01T17:59:21;4.50;65.60
11700;DHT22;5906;51.660;6.674;2023-03-01T18:01:48;4.40;67.30
11700;DHT22;5906;51.660;6.674;2023-03-01T18:04:15;4.30;70.20
11700;DHT22;5906;51.660;6.674;2023-03-01T18:06:44;4.30;71.90
11700;DHT22;5906;51.660;6.674;2023-03-01T18:09:11;4.30;73.20
11700;DHT22;5906;51.660;6.674;2023-03-01T18:11:38;4.20;76.50
11700;DHT22;5906;51.660;6.674;2023-03-01T18:14:05;4.30;77.50
11700;DHT22;5906;51.660;6.674;2023-03-01T18:16:32;4.20;78.90
11700;DHT22;5906;51.660;6.674;2023-03-01T18:19:00;4.00;82.80
11700;DHT22;5906;51.660;6.674;2023-03-01T18:21:28;3.90;87.60